Time;durP1;ratioP1;P1;durP2;ratioP2;P2;SDS_P1;SDS_P2;PMS_P1;PMS_P2;Temp;Humidity;BMP_temperature;BMP_pressure;BME280_temperature;BME280_humidity;BME280_pressure;Samples;Min_cycle;Max_cycle;Signal;HPM_P1;HPM_P2
2021/11/21 00:00:40;;;;;;;7.90;4.40;;;8.90;99.90;;;;;;5257242;28;20200;-70
2021/11/21 00:03:15;;;;;;;8.30;4.73;;;8.90;99.90;;;;;;5257098;28;20601;-69
2021/11/21 00:05:47;;;;;;;7.07;4.17;;;8.80;99.90;;;;;;5268070;28;20268;-71
2021/11/21 00:08:19;;;;;;;6.87;4.10;;;8.80;99.90;;;;;;5261851;28;20564;-75
2021/11/21 00:10:51;;;;;;;9.53;4.33;;;8.80;99.90;;;;;;5232603;28;20219;-70
2021/11/21 00:13:26;;;;;;;5.87;4.27;;;8.90;99.90;;;;;;5249729;28;20235;-74
2021/11/21 00:16:00;;;;;;;6.23;3.80;;;8.80;99.90;;;;;;5249030;28;20697;-74
2021/11/21 00:18:35;;;;;;;8.10;3.80;;;8.80;99.90;;;;;;5248619;28;20239;-70
2021/11/21 00:21:07;;;;;;;10.07;4.17;;;8.80;99.90;;;;;;5281344;28;20207;-70
2021/11/21 00:23:39;;;;;;;6.27;3.70;;;8.80;99.90;;;;;;5249503;28;20215;-68
2021/11/21 00:26:11;;;;;;;5.33;3.30;;;8.80;99.90;;;;;;5232512;28;20552;-71
2021/11/21 00:28:43;;;;;;;6.00;3.80;;;8.80;99.90;;;;;;5249374;28;20209;-70
2021/11/21 00:31:18;;;;;;;9.13;3.83;;;8.80;99.90;;;;;;5249828;28;20205;-71
2021/11/21 00:33:50;;;;;;;7.93;4.00;;;8.80;99.90;;;;;;5249533;28;20189;-73
2021/11/21 00:36:23;;;;;;;8.70;4.90;;;8.70;99.90;;;;;;5248520;28;20215;-71
2021/11/21 00:38:55;;;;;;;5.53;3.20;;;8.70;99.90;;;;;;5249313;28;20213;-69
2021/11/21 00:41:28;;;;;;;8.63;4.43;;;8.70;99.90;;;;;;5249656;28;20204;-67
2021/11/21 00:44:03;;;;;;;8.13;3.50;;;8.80;99.90;;;;;;5248707;28;20204;-70
2021/11/21 00:46:35;;;;;;;9.10;3.50;;;8.80;99.90;;;;;;5248245;28;20580;-71
2021/11/21 00:49:13;;;;;;;6.83;3.13;;;8.80;99.90;;;;;;5249616;28;20282;-69
2021/11/21 00:51:45;;;;;;;4.93;2.53;;;8.80;99.90;;;;;;5248503;28;20197;-68
2021/11/21 00:54:29;;;;;;;4.57;2.97;;;8.80;99.90;;;;;;5249817;28;20181;-70
2021/11/21 00:57:04;;;;;;;6.20;3.10;;;8.80;99.90;;;;;;5250708;28;20509;-70
2021/11/21 00:59:36;;;;;;;8.13;3.30;;;8.80;99.90;;;;;;5248585;28;20212;-72
2021/11/21 01:02:11;;;;;;;9.50;2.50;;;8.80;99.90;;;;;;5248113;28;20216;-69
2021/11/21 01:04:44;;;;;;;6.80;2.47;;;8.80;99.90;;;;;;5247948;28;20770;-70
2021/11/21 01:07:21;;;;;;;5.00;2.47;;;8.80;99.90;;;;;;5249350;28;20644;-69
2021/11/21 01:09:53;;;;;;;7.63;2.40;;;8.80;99.90;;;;;;5248583;28;20181;-71
2021/11/21 01:12:25;;;;;;;5.73;2.23;;;8.80;99.90;;;;;;5249372;28;20236;-68
2021/11/21 01:14:57;;;;;;;5.97;2.20;;;8.70;99.90;;;;;;5249433;28;20208;-70
2021/11/21 01:17:29;;;;;;;5.53;2.40;;;8.80;99.90;;;;;;5249480;28;20239;-70
2021/11/21 01:20:02;;;;;;;4.50;2.47;;;8.70;99.90;;;;;;5248611;28;20209;-72
2021/11/21 01:22:35;;;;;;;5.17;2.50;;;8.70;99.90;;;;;;5247334;28;20550;-70
2021/11/21 01:25:08;;;;;;;7.50;2.50;;;8.70;99.90;;;;;;5247924;28;20212;-71
2021/11/21 01:27:43;;;;;;;8.07;2.50;;;8.70;99.90;;;;;;5247938;28;20229;-69
2021/11/21 01:30:23;;;;;;;7.73;2.90;;;8.70;99.90;;;;;;5248861;28;20196;-71
2021/11/21 01:32:59;;;;;;;6.73;3.00;;;8.70;99.90;;;;;;5250758;28;20236;-67
2021/11/21 01:35:32;;;;;;;4.83;2.47;;;8.70;99.90;;;;;;5253391;28;20559;-70
2021/11/21 01:38:05;;;;;;;5.43;2.77;;;8.70;99.90;;;;;;5253738;28;20204;-70
2021/11/21 01:40:41;;;;;;;7.60;3.43;;;8.70;99.90;;;;;;5254393;28;20189;-71
2021/11/21 01:43:17;;;;;;;8.17;3.13;;;8.70;99.90;;;;;;5252597;28;20307;-73
2021/11/21 01:45:49;;;;;;;9.80;3.20;;;8.70;99.90;;;;;;5252527;28;20559;-70
2021/11/21 01:48:21;;;;;;;5.70;2.80;;;8.60;99.90;;;;;;5235584;28;20632;-68
2021/11/21 01:50:56;;;;;;;8.10;3.40;;;8.60;99.90;;;;;;5252650;28;20197;-69
2021/11/21 01:53:28;;;;;;;8.70;3.17;;;8.60;99.90;;;;;;5252695;28;20308;-70
2021/11/21 01:56:04;;;;;;;4.00;2.57;;;8.70;99.90;;;;;;5252846;28;20213;-69
2021/11/21 01:58:38;;;;;;;9.33;3.60;;;8.60;99.90;;;;;;5252457;28;20239;-68
2021/11/21 02:01:15;;;;;;;7.00;3.60;;;8.60;99.90;;;;;;5252877;28;20501;-71
2021/11/21 02:03:50;;;;;;;7.77;3.50;;;8.60;99.90;;;;;;5251805;28;20678;-69
2021/11/21 02:06:22;;;;;;;8.17;3.63;;;8.60;99.90;;;;;;5252180;28;20231;-70
2021/11/21 02:08:57;;;;;;;7.03;3.63;;;8.60;99.90;;;;;;5252403;28;20224;-70
2021/11/21 02:11:29;;;;;;;9.00;3.00;;;8.60;99.90;;;;;;5251875;28;20212;-69
2021/11/21 02:14:04;;;;;;;6.67;3.60;;;8.70;99.90;;;;;;5251360;28;20238;-72
2021/11/21 02:16:37;;;;;;;7.60;3.40;;;8.70;99.90;;;;;;5251448;28;20671;-74
2021/11/21 02:19:09;;;;;;;8.50;3.20;;;8.70;99.90;;;;;;5251934;28;20239;-69
2021/11/21 02:21:46;;;;;;;8.20;3.33;;;8.70;99.90;;;;;;5252400;28;20215;-72
2021/11/21 02:24:21;;;;;;;4.70;2.93;;;8.70;99.90;;;;;;5252735;28;20301;-72
2021/11/21 02:26:56;;;;;;;7.10;3.20;;;8.70;99.90;;;;;;5252539;28;20717;-70
2021/11/21 02:29:28;;;;;;;7.30;3.00;;;8.70;99.90;;;;;;5252803;28;20231;-67
2021/11/21 02:32:03;;;;;;;5.90;2.40;;;8.70;99.90;;;;;;5251555;28;20520;-71
2021/11/21 02:34:36;;;;;;;5.20;2.83;;;8.70;99.90;;;;;;5251760;28;20238;-68
2021/11/21 02:37:09;;;;;;;5.37;2.97;;;8.70;99.90;;;;;;5251654;28;20201;-69
2021/11/21 02:39:44;;;;;;;7.83;2.90;;;8.70;99.90;;;;;;5250579;28;20228;-70
2021/11/21 02:42:35;;;;;;;6.37;3.23;;;8.70;99.90;;;;;;5250667;28;20219;-68
2021/11/21 02:45:13;;;;;;;6.17;2.97;;;8.70;99.90;;;;;;5250802;28;20229;-71
2021/11/21 02:47:46;;;;;;;7.30;3.10;;;8.70;99.90;;;;;;5250273;28;20199;-71
2021/11/21 02:50:23;;;;;;;5.47;3.17;;;8.70;99.90;;;;;;5251065;28;20240;-73
2021/11/21 02:52:57;;;;;;;6.77;2.97;;;8.70;99.90;;;;;;5250570;28;20205;-70
2021/11/21 02:55:31;;;;;;;12.83;3.63;;;8.70;99.90;;;;;;5251265;28;20196;-70
2021/11/21 02:58:05;;;;;;;5.90;3.53;;;8.70;99.90;;;;;;5251282;28;20638;-70
2021/11/21 03:00:38;;;;;;;7.03;3.40;;;8.70;99.90;;;;;;5250988;28;20231;-68
2021/11/21 03:03:13;;;;;;;6.47;3.43;;;8.70;99.90;;;;;;5249923;28;20237;-70
2021/11/21 03:05:47;;;;;;;5.17;3.27;;;8.70;99.90;;;;;;5250996;28;20235;-70
2021/11/21 03:08:22;;;;;;;6.77;3.33;;;8.70;99.90;;;;;;5249708;28;20208;-69
2021/11/21 03:10:54;;;;;;;4.23;3.17;;;8.70;99.90;;;;;;5233641;28;20228;-69
2021/11/21 03:13:27;;;;;;;7.20;3.00;;;8.70;99.90;;;;;;5250891;28;20208;-69
2021/11/21 03:16:01;;;;;;;7.57;3.23;;;8.70;99.90;;;;;;5249953;28;20232;-69
2021/11/21 03:18:33;;;;;;;7.13;3.30;;;8.70;99.90;;;;;;5250051;28;20212;-72
2021/11/21 03:21:08;;;;;;;7.00;3.40;;;8.70;99.90;;;;;;5252173;28;20228;-69
2021/11/21 03:23:41;;;;;;;6.70;3.13;;;8.70;99.90;;;;;;5250525;28;20285;-70
2021/11/21 03:26:14;;;;;;;5.93;3.17;;;8.70;99.90;;;;;;5251140;28;20240;-71
2021/11/21 03:28:46;;;;;;;7.13;3.10;;;8.70;99.90;;;;;;5250782;28;20671;-72
2021/11/21 03:31:18;;;;;;;5.53;2.73;;;8.70;99.90;;;;;;5232806;28;20228;-69
2021/11/21 03:33:51;;;;;;;5.70;2.60;;;8.70;99.90;;;;;;5249474;28;20201;-69
2021/11/21 03:36:23;;;;;;;9.60;3.07;;;8.70;99.90;;;;;;5250695;28;20233;-70
2021/11/21 03:38:58;;;;;;;7.53;2.60;;;8.70;99.90;;;;;;5249615;28;20209;-70
2021/11/21 03:41:31;;;;;;;6.80;3.13;;;8.70;99.90;;;;;;5250243;28;20235;-70
2021/11/21 03:44:06;;;;;;;7.30;2.80;;;8.70;99.90;;;;;;5249796;28;20219;-72
2021/11/21 03:46:39;;;;;;;6.60;3.13;;;8.70;99.90;;;;;;5250109;28;20232;-71
2021/11/21 03:49:11;;;;;;;5.17;2.43;;;8.70;99.90;;;;;;5251225;28;20251;-68
2021/11/21 03:51:45;;;;;;;4.80;2.20;;;8.70;99.90;;;;;;5249230;28;20668;-67
2021/11/21 03:54:17;;;;;;;7.40;2.70;;;8.70;99.90;;;;;;5250467;28;20228;-68
2021/11/21 03:56:49;;;;;;;4.73;2.50;;;8.70;99.90;;;;;;5249129;28;20673;-69
2021/11/21 03:59:22;;;;;;;6.07;2.27;;;8.70;99.90;;;;;;5250090;28;20201;-68
2021/11/21 04:01:58;;;;;;;7.00;2.10;;;8.70;99.90;;;;;;5249957;28;20232;-69
2021/11/21 04:04:32;;;;;;;4.63;2.27;;;8.70;99.90;;;;;;5249670;28;20232;-71
2021/11/21 04:07:04;;;;;;;6.60;2.27;;;8.70;99.90;;;;;;5249149;28;20675;-70
2021/11/21 04:09:40;;;;;;;4.97;2.03;;;8.70;99.90;;;;;;5250162;28;20209;-68
2021/11/21 04:12:14;;;;;;;4.40;1.83;;;8.70;99.90;;;;;;5250295;28;20220;-71
2021/11/21 04:14:46;;;;;;;3.87;1.90;;;8.70;99.90;;;;;;5249013;28;20197;-72
2021/11/21 04:17:18;;;;;;;6.07;1.93;;;8.70;99.90;;;;;;5249286;28;20572;-68
2021/11/21 04:19:49;;;;;;;4.77;1.93;;;8.70;99.90;;;;;;5248521;28;20534;-70
2021/11/21 04:22:22;;;;;;;5.60;1.87;;;8.70;99.90;;;;;;5249926;28;20655;-70
2021/11/21 04:24:56;;;;;;;4.10;1.80;;;8.70;99.90;;;;;;5249964;28;20293;-66
2021/11/21 04:27:28;;;;;;;4.50;1.60;;;8.70;99.90;;;;;;5249961;28;20635;-69
2021/11/21 04:30:01;;;;;;;5.87;1.87;;;8.70;99.90;;;;;;5249996;28;20212;-70
2021/11/21 04:32:35;;;;;;;3.37;1.53;;;8.60;99.90;;;;;;5248698;28;20233;-69
2021/11/21 04:35:12;;;;;;;5.93;1.70;;;8.60;99.90;;;;;;5249681;28;20208;-71
2021/11/21 04:37:44;;;;;;;4.00;1.60;;;8.60;99.90;;;;;;5248829;28;20247;-70
2021/11/21 04:40:17;;;;;;;4.90;1.63;;;8.50;99.90;;;;;;5249501;28;20204;-69
2021/11/21 04:42:49;;;;;;;3.77;1.60;;;8.50;99.90;;;;;;5249415;28;20247;-70
2021/11/21 04:45:21;;;;;;;4.80;1.83;;;8.50;99.90;;;;;;5249500;28;20308;-69
2021/11/21 04:47:53;;;;;;;4.77;1.60;;;8.40;99.90;;;;;;5248304;28;20260;-70
2021/11/21 04:50:26;;;;;;;4.27;1.83;;;8.40;99.90;;;;;;5248486;28;20287;-69
2021/11/21 04:52:58;;;;;;;2.27;1.20;;;8.40;99.90;;;;;;5248248;28;20261;-70
2021/11/21 04:55:30;;;;;;;6.33;1.67;;;8.40;99.90;;;;;;5249235;28;20212;-70
2021/11/21 04:58:07;;;;;;;7.93;1.63;;;8.30;99.90;;;;;;5249538;28;20236;-69
2021/11/21 05:00:39;;;;;;;7.10;2.00;;;8.30;99.90;;;;;;5249755;28;20204;-71
2021/11/21 05:03:12;;;;;;;2.97;1.50;;;8.30;99.90;;;;;;5232882;28;20317;-71
2021/11/21 05:05:44;;;;;;;2.90;1.40;;;8.30;99.90;;;;;;5249375;28;20204;-70
2021/11/21 05:08:16;;;;;;;3.37;1.60;;;8.20;99.90;;;;;;5251703;28;20231;-70
2021/11/21 05:10:49;;;;;;;2.03;1.60;;;8.20;99.90;;;;;;5252428;28;20201;-71
2021/11/21 05:13:21;;;;;;;2.93;1.53;;;8.20;99.90;;;;;;5253366;28;20503;-68
2021/11/21 05:15:55;;;;;;;4.70;1.50;;;8.20;99.90;;;;;;5253427;28;20185;-71
2021/11/21 05:18:27;;;;;;;4.00;1.73;;;8.20;99.90;;;;;;5253152;28;20208;-70
2021/11/21 05:20:59;;;;;;;5.50;1.83;;;8.20;99.90;;;;;;5253056;28;20204;-73
2021/11/21 05:23:31;;;;;;;4.00;1.70;;;8.20;99.90;;;;;;5251907;28;20258;-69
2021/11/21 05:26:03;;;;;;;2.43;1.50;;;8.20;99.90;;;;;;5252026;28;20204;-73
2021/11/21 05:28:36;;;;;;;2.33;1.60;;;8.20;99.90;;;;;;5252946;28;20211;-74
2021/11/21 05:31:08;;;;;;;1.87;1.47;;;8.20;99.90;;;;;;5253192;28;20556;-70
2021/11/21 05:33:42;;;;;;;2.93;1.50;;;8.20;99.90;;;;;;5252936;28;20204;-71
2021/11/21 05:36:15;;;;;;;1.80;1.33;;;8.20;99.90;;;;;;5252879;28;20205;-68
2021/11/21 05:38:47;;;;;;;2.13;1.30;;;8.20;99.90;;;;;;5252896;28;20197;-72
2021/11/21 05:41:19;;;;;;;4.13;1.90;;;8.10;99.90;;;;;;5253026;28;20236;-70
2021/11/21 05:43:51;;;;;;;3.07;1.37;;;8.10;99.90;;;;;;5252650;28;20209;-68
2021/11/21 05:46:26;;;;;;;4.50;1.40;;;8.10;99.90;;;;;;5251845;28;20217;-71
2021/11/21 05:49:00;;;;;;;4.23;1.27;;;8.10;99.90;;;;;;5251933;28;20217;-70
2021/11/21 05:51:32;;;;;;;1.53;1.30;;;8.10;99.90;;;;;;5251937;28;20208;-70
2021/11/21 05:54:04;;;;;;;1.90;1.20;;;8.10;99.90;;;;;;5253112;28;20227;-70
2021/11/21 05:56:36;;;;;;;2.47;1.17;;;8.10;99.90;;;;;;5253358;28;20223;-67
2021/11/21 05:59:09;;;;;;;1.93;1.00;;;8.10;99.90;;;;;;5252437;28;20215;-68
2021/11/21 06:01:40;;;;;;;2.83;1.40;;;8.10;99.90;;;;;;5252629;28;20216;-67
2021/11/21 06:04:16;;;;;;;1.23;1.00;;;8.10;99.90;;;;;;5252610;28;20267;-67
2021/11/21 06:06:48;;;;;;;2.47;1.20;;;8.10;99.90;;;;;;5218655;28;20231;-67
2021/11/21 06:09:20;;;;;;;2.47;1.10;;;8.10;99.90;;;;;;5251520;28;20209;-68
2021/11/21 06:11:54;;;;;;;1.43;1.00;;;8.10;99.90;;;;;;5251608;28;20207;-68
2021/11/21 06:14:30;;;;;;;1.50;1.00;;;8.10;99.90;;;;;;5251685;28;20207;-69
2021/11/21 06:17:04;;;;;;;1.73;1.20;;;8.10;99.90;;;;;;5252685;28;20664;-69
2021/11/21 06:19:37;;;;;;;2.67;0.97;;;8.10;99.90;;;;;;5249671;28;20232;-67
2021/11/21 06:22:09;;;;;;;1.90;1.13;;;8.10;99.90;;;;;;5252300;28;20204;-71
2021/11/21 06:24:41;;;;;;;4.30;1.10;;;8.10;99.90;;;;;;5251386;28;20248;-67
2021/11/21 06:27:14;;;;;;;2.33;0.90;;;8.10;99.90;;;;;;5234557;28;20221;-68
2021/11/21 06:29:48;;;;;;;2.60;1.17;;;8.10;99.90;;;;;;5251333;28;20204;-66
2021/11/21 06:32:20;;;;;;;1.67;1.10;;;8.10;99.90;;;;;;5251219;28;20219;-65
2021/11/21 06:34:55;;;;;;;4.43;1.30;;;8.10;99.90;;;;;;5251118;28;20209;-67
2021/11/21 06:37:27;;;;;;;2.83;1.30;;;8.10;99.90;;;;;;5251971;28;20227;-68
2021/11/21 06:39:59;;;;;;;1.20;1.00;;;8.10;99.90;;;;;;5251559;28;20205;-67
2021/11/21 06:42:33;;;;;;;4.43;1.10;;;8.10;99.90;;;;;;5251152;28;20571;-71
2021/11/21 06:45:06;;;;;;;2.50;1.07;;;8.10;99.90;;;;;;5251047;28;20578;-71
2021/11/21 06:47:39;;;;;;;1.50;1.17;;;8.10;99.90;;;;;;5251386;28;20243;-66
2021/11/21 06:50:17;;;;;;;1.87;1.20;;;8.10;99.90;;;;;;5254149;28;20274;-68
2021/11/21 06:52:51;;;;;;;3.00;1.27;;;8.10;99.90;;;;;;5251767;28;20246;-65
2021/11/21 06:55:23;;;;;;;1.77;0.93;;;8.20;99.90;;;;;;5251115;28;20642;-65
2021/11/21 06:57:55;;;;;;;1.50;1.03;;;8.20;99.90;;;;;;5233639;28;20236;-67
2021/11/21 07:00:27;;;;;;;1.90;0.80;;;8.20;99.90;;;;;;5251325;28;20626;-68
2021/11/21 07:02:59;;;;;;;2.63;1.00;;;8.20;99.90;;;;;;5250805;28;20229;-68
2021/11/21 07:05:31;;;;;;;2.33;1.40;;;8.20;99.90;;;;;;5250157;28;20189;-67
2021/11/21 07:08:04;;;;;;;1.07;0.97;;;8.20;99.90;;;;;;5249609;28;20660;-69
2021/11/21 07:10:36;;;;;;;1.57;0.90;;;8.20;99.90;;;;;;5233328;28;20318;-70
2021/11/21 07:13:08;;;;;;;5.00;1.30;;;8.20;99.90;;;;;;5233491;28;20240;-67
2021/11/21 07:15:40;;;;;;;2.80;1.20;;;8.20;99.90;;;;;;5249512;28;20208;-67
2021/11/21 07:18:12;;;;;;;2.80;1.40;;;8.20;99.90;;;;;;5250021;28;20706;-70
2021/11/21 07:20:44;;;;;;;3.77;1.40;;;8.20;99.90;;;;;;5249390;28;20232;-68
2021/11/21 07:23:19;;;;;;;2.60;1.50;;;8.20;99.90;;;;;;5250485;28;20229;-65
2021/11/21 07:25:51;;;;;;;2.83;1.20;;;8.20;99.90;;;;;;5250732;28;20192;-68
2021/11/21 07:28:23;;;;;;;2.00;1.27;;;8.20;99.90;;;;;;5249441;28;20530;-66
2021/11/21 07:30:55;;;;;;;2.03;1.00;;;8.20;99.90;;;;;;5250066;28;20197;-68
2021/11/21 07:33:27;;;;;;;2.20;1.13;;;8.20;99.90;;;;;;5249337;28;20231;-67
2021/11/21 07:35:59;;;;;;;1.30;0.90;;;8.20;99.90;;;;;;5250937;28;20642;-69
2021/11/21 07:38:36;;;;;;;2.20;1.20;;;8.20;99.90;;;;;;5283798;28;20247;-71
2021/11/21 07:41:11;;;;;;;1.30;1.00;;;8.20;99.90;;;;;;5252263;28;20204;-70
2021/11/21 07:43:43;;;;;;;1.73;1.23;;;8.20;99.90;;;;;;5250704;28;20239;-68
2021/11/21 07:46:15;;;;;;;2.17;1.37;;;8.20;99.90;;;;;;5249592;28;20209;-71
2021/11/21 07:48:47;;;;;;;2.87;1.27;;;8.30;99.90;;;;;;5250266;28;20601;-70
2021/11/21 07:51:19;;;;;;;1.50;1.27;;;8.30;99.90;;;;;;5250257;28;20688;-67
2021/11/21 07:53:52;;;;;;;2.23;1.23;;;8.30;99.90;;;;;;5249916;28;20228;-66
2021/11/21 07:56:26;;;;;;;1.90;1.40;;;8.40;99.90;;;;;;5250028;28;20209;-71
2021/11/21 07:58:58;;;;;;;4.43;1.80;;;8.40;99.90;;;;;;5249196;28;20289;-68
2021/11/21 08:01:31;;;;;;;3.77;1.73;;;8.40;99.90;;;;;;5249249;28;20216;-67
2021/11/21 08:04:03;;;;;;;5.10;1.90;;;8.40;99.90;;;;;;5249668;28;20240;-68
2021/11/21 08:06:35;;;;;;;2.20;1.30;;;8.40;99.90;;;;;;5248806;28;20208;-72
2021/11/21 08:09:09;;;;;;;3.87;1.40;;;8.40;99.90;;;;;;5250273;28;20240;-69
2021/11/21 08:11:41;;;;;;;1.70;1.20;;;8.40;99.90;;;;;;5249749;28;20212;-69
2021/11/21 08:14:15;;;;;;;2.43;1.30;;;8.50;99.90;;;;;;5251104;28;20220;-70
2021/11/21 08:16:47;;;;;;;2.30;1.40;;;8.50;99.90;;;;;;5250702;28;20201;-69
2021/11/21 08:19:19;;;;;;;1.63;1.13;;;8.50;99.90;;;;;;5250073;28;20530;-68
2021/11/21 08:21:51;;;;;;;2.57;1.20;;;8.50;99.90;;;;;;5250158;28;20231;-71
2021/11/21 08:24:23;;;;;;;1.73;1.33;;;8.60;99.90;;;;;;5249206;28;20663;-68
2021/11/21 08:26:58;;;;;;;3.33;1.40;;;8.60;99.90;;;;;;5249996;28;20215;-70
2021/11/21 08:29:30;;;;;;;3.67;1.30;;;8.60;99.90;;;;;;5248765;28;20235;-69
2021/11/21 08:32:03;;;;;;;2.13;1.33;;;8.70;99.90;;;;;;5250086;28;20231;-72
2021/11/21 08:34:36;;;;;;;3.30;1.70;;;8.70;99.90;;;;;;5252435;28;20279;-73
2021/11/21 08:37:08;;;;;;;4.73;1.80;;;8.70;99.90;;;;;;5234261;28;20185;-70
2021/11/21 08:39:40;;;;;;;4.40;1.50;;;8.70;99.90;;;;;;5266416;28;20215;-72
2021/11/21 08:42:12;;;;;;;3.20;1.70;;;8.70;99.90;;;;;;5248394;28;20196;-75
2021/11/21 08:44:44;;;;;;;3.10;1.63;;;8.70;99.90;;;;;;5249418;28;20209;-73
2021/11/21 08:47:17;;;;;;;3.80;2.00;;;8.70;99.90;;;;;;5250012;28;20209;-72
2021/11/21 08:49:49;;;;;;;4.37;1.97;;;8.70;99.90;;;;;;5249433;28;20201;-70
2021/11/21 08:52:22;;;;;;;2.60;1.87;;;8.70;99.90;;;;;;5249347;28;20295;-71
2021/11/21 08:54:56;;;;;;;3.10;2.00;;;8.70;99.90;;;;;;5248004;28;20200;-70
2021/11/21 08:57:29;;;;;;;4.90;2.00;;;8.60;99.90;;;;;;5248174;28;20288;-72
2021/11/21 09:00:07;;;;;;;3.30;1.60;;;8.60;99.90;;;;;;5248962;28;20205;-69
2021/11/21 09:02:40;;;;;;;1.73;0.97;;;8.50;99.90;;;;;;5249812;28;20215;-70
2021/11/21 09:05:12;;;;;;;1.17;0.80;;;8.40;99.90;;;;;;5257047;28;20571;-72
2021/11/21 09:07:45;;;;;;;3.60;0.90;;;8.40;99.90;;;;;;5252054;28;20562;-72
2021/11/21 09:10:19;;;;;;;2.33;1.00;;;8.50;99.90;;;;;;5265620;28;20207;-69
2021/11/21 09:12:55;;;;;;;3.33;1.30;;;8.50;99.90;;;;;;5254415;28;20548;-71
2021/11/21 09:15:27;;;;;;;2.13;1.40;;;8.60;99.90;;;;;;5260355;28;20215;-70
2021/11/21 09:18:00;;;;;;;3.27;1.53;;;8.70;99.90;;;;;;5264984;28;20200;-70
2021/11/21 09:20:32;;;;;;;4.47;1.50;;;8.90;99.90;;;;;;5252917;28;20567;-72
2021/11/21 09:23:10;;;;;;;5.37;1.13;;;8.90;99.90;;;;;;5263398;28;20501;-74
2021/11/21 09:25:41;;;;;;;3.03;1.23;;;8.90;99.90;;;;;;5261107;28;20196;-73
2021/11/21 09:28:14;;;;;;;2.37;0.93;;;9.00;99.90;;;;;;5253185;28;20217;-71
2021/11/21 09:30:46;;;;;;;2.57;1.30;;;9.00;99.90;;;;;;5250867;28;20652;-70
2021/11/21 09:33:19;;;;;;;2.50;1.30;;;9.10;99.90;;;;;;5249267;28;20208;-73
2021/11/21 09:35:54;;;;;;;2.33;1.27;;;9.20;99.90;;;;;;5262751;28;20207;-71
2021/11/21 09:38:27;;;;;;;3.17;1.70;;;9.30;99.90;;;;;;5269048;28;20200;-69
2021/11/21 09:41:00;;;;;;;3.77;1.20;;;9.30;99.90;;;;;;5249166;28;20564;-67
2021/11/21 09:43:32;;;;;;;2.23;1.30;;;9.30;99.90;;;;;;5231832;28;20259;-71
2021/11/21 09:46:05;;;;;;;2.73;1.10;;;9.30;99.90;;;;;;5249419;28;20208;-70
2021/11/21 09:48:37;;;;;;;4.27;1.23;;;9.30;99.90;;;;;;5249087;28;20232;-72
2021/11/21 09:51:10;;;;;;;4.60;1.30;;;9.30;99.90;;;;;;5249051;28;20582;-70
2021/11/21 09:53:45;;;;;;;4.03;1.27;;;9.30;99.90;;;;;;5251230;28;20197;-73
2021/11/21 09:56:19;;;;;;;5.03;1.50;;;9.20;99.90;;;;;;5252063;28;20222;-69
2021/11/21 09:58:51;;;;;;;9.17;1.57;;;9.20;99.90;;;;;;5267490;28;20231;-73
2021/11/21 10:01:35;;;;;;;5.97;2.47;;;9.20;99.90;;;;;;5255557;28;20223;-74
2021/11/21 10:04:12;;;;;;;5.63;2.10;;;9.10;99.90;;;;;;5261774;28;20566;-73
2021/11/21 10:06:46;;;;;;;7.77;2.47;;;9.10;99.90;;;;;;5266684;28;20292;-73
2021/11/21 10:09:18;;;;;;;10.47;2.70;;;9.10;99.90;;;;;;5255645;28;20666;-70
2021/11/21 10:12:07;;;;;;;9.80;2.83;;;9.20;99.90;;;;;;5264026;28;20208;-71
2021/11/21 10:14:59;;;;;;;9.03;2.30;;;9.20;99.90;;;;;;5265236;28;20220;-70
2021/11/21 10:17:32;;;;;;;10.87;1.87;;;9.20;99.90;;;;;;5241089;28;20203;-69
2021/11/21 10:20:09;;;;;;;4.60;1.50;;;9.20;99.90;;;;;;5262798;28;20215;-71
2021/11/21 10:22:52;;;;;;;7.27;2.30;;;9.10;99.90;;;;;;5266859;28;20190;-72
2021/11/21 10:25:49;;;;;;;6.17;1.30;;;9.10;99.90;;;;;;5232089;28;20227;-71
2021/11/21 10:28:34;;;;;;;11.23;2.00;;;9.10;99.90;;;;;;5255960;28;20262;-73
2021/11/21 10:31:16;;;;;;;6.47;2.03;;;9.10;99.90;;;;;;5255570;28;20204;-72
2021/11/21 10:33:57;;;;;;;3.77;1.70;;;9.20;99.90;;;;;;5265050;28;20200;-73
2021/11/21 10:36:32;;;;;;;5.30;1.70;;;9.20;99.90;;;;;;5265237;28;20184;-75
2021/11/21 10:39:06;;;;;;;4.07;1.77;;;9.30;99.90;;;;;;5254990;28;20228;-73
2021/11/21 10:41:44;;;;;;;8.60;2.10;;;9.30;99.90;;;;;;5259086;28;20196;-72
2021/11/21 10:44:20;;;;;;;5.97;2.30;;;9.30;99.90;;;;;;5254021;28;20224;-73
2021/11/21 10:46:58;;;;;;;6.87;2.03;;;9.30;99.90;;;;;;5271698;28;20670;-71
2021/11/21 10:49:39;;;;;;;8.10;1.50;;;9.40;99.90;;;;;;5230507;28;20241;-71
2021/11/21 10:52:23;;;;;;;5.87;2.00;;;9.40;99.90;;;;;;5230943;28;20204;-72
2021/11/21 10:54:57;;;;;;;5.73;1.67;;;9.40;99.90;;;;;;5231184;28;20226;-71
2021/11/21 10:57:35;;;;;;;5.40;1.13;;;9.40;99.90;;;;;;5230831;28;20212;-71
2021/11/21 11:00:15;;;;;;;5.30;1.33;;;9.40;99.90;;;;;;5230221;28;20240;-72
2021/11/21 11:02:47;;;;;;;7.70;2.00;;;9.50;99.90;;;;;;5229908;28;20227;-71
2021/11/21 11:05:21;;;;;;;3.17;1.07;;;9.50;99.90;;;;;;5229563;28;20221;-72
2021/11/21 11:08:01;;;;;;;6.70;1.17;;;9.50;99.90;;;;;;5229647;28;20240;-70
2021/11/21 11:10:38;;;;;;;6.50;1.30;;;9.50;99.90;;;;;;5229888;28;20229;-71
2021/11/21 11:13:14;;;;;;;5.80;1.50;;;9.50;99.90;;;;;;5229791;28;20204;-71
2021/11/21 11:15:46;;;;;;;4.40;1.20;;;9.50;99.90;;;;;;5230234;28;20221;-72
2021/11/21 11:18:20;;;;;;;6.50;1.80;;;9.60;99.90;;;;;;5230487;28;20496;-72
2021/11/21 11:20:54;;;;;;;8.00;1.57;;;9.60;99.90;;;;;;5213031;28;20261;-73
2021/11/21 11:23:31;;;;;;;7.80;1.50;;;9.60;99.90;;;;;;5230317;28;20597;-72
2021/11/21 11:26:07;;;;;;;7.13;1.80;;;9.60;99.90;;;;;;5231139;28;20232;-68
2021/11/21 11:28:47;;;;;;;6.73;1.90;;;9.50;99.90;;;;;;5231283;28;20225;-72
2021/11/21 11:31:22;;;;;;;8.87;2.43;;;9.50;99.90;;;;;;5237505;28;20659;-70
2021/11/21 11:33:57;;;;;;;7.20;1.83;;;9.40;99.90;;;;;;5231541;28;20196;-70
2021/11/21 11:36:34;;;;;;;7.30;2.20;;;9.40;99.90;;;;;;5232945;28;20224;-73
2021/11/21 11:39:09;;;;;;;7.43;2.10;;;9.40;99.90;;;;;;5250395;28;20205;-71
2021/11/21 11:41:59;;;;;;;9.00;1.73;;;9.30;99.90;;;;;;5249679;28;20232;-69
2021/11/21 11:44:55;;;;;;;6.63;2.33;;;9.30;99.90;;;;;;5250734;28;20208;-69
2021/11/21 11:47:31;;;;;;;3.80;1.47;;;9.20;99.90;;;;;;5245762;28;20229;-73
2021/11/21 11:50:06;;;;;;;6.90;1.70;;;9.10;99.90;;;;;;5250116;28;20475;-73
2021/11/21 11:53:08;;;;;;;5.47;1.40;;;9.10;99.90;;;;;;5254061;28;20228;-74
2021/11/21 11:56:12;;;;;;;3.83;1.40;;;9.10;99.90;;;;;;5241982;28;20215;-72
2021/11/21 11:58:59;;;;;;;10.43;2.33;;;9.10;99.90;;;;;;5248989;28;20247;-72
2021/11/21 12:01:38;;;;;;;7.33;2.00;;;9.00;99.90;;;;;;5249697;28;20289;-73
2021/11/21 12:04:13;;;;;;;5.40;2.00;;;9.00;99.90;;;;;;5248035;28;20267;-73
2021/11/21 12:06:59;;;;;;;8.53;2.13;;;8.90;99.90;;;;;;5246691;28;20212;-74
2021/11/21 12:09:33;;;;;;;7.57;2.10;;;8.90;99.90;;;;;;5247282;28;20217;-76
2021/11/21 12:12:09;;;;;;;6.03;1.43;;;8.70;99.90;;;;;;5246212;28;20201;-72
2021/11/21 12:14:43;;;;;;;10.53;2.57;;;8.70;99.90;;;;;;5248300;28;20283;-73
2021/11/21 12:17:17;;;;;;;5.63;1.67;;;8.70;99.90;;;;;;5248784;28;20569;-72
2021/11/21 12:19:57;;;;;;;6.80;1.53;;;8.70;99.90;;;;;;5246988;28;20211;-71
2021/11/21 12:22:32;;;;;;;6.37;1.60;;;8.70;99.90;;;;;;5249503;28;20246;-73
2021/11/21 12:25:08;;;;;;;7.90;2.30;;;8.70;99.90;;;;;;5244714;28;20220;-72
2021/11/21 12:27:52;;;;;;;9.83;3.10;;;8.70;99.90;;;;;;5246666;28;20283;-71
2021/11/21 12:30:27;;;;;;;4.60;1.70;;;8.50;99.90;;;;;;5247505;28;20196;-73
2021/11/21 12:33:28;;;;;;;11.83;2.37;;;8.30;99.90;;;;;;5246886;28;20197;-71
2021/11/21 12:35:59;;;;;;;12.87;2.40;;;8.20;99.90;;;;;;5247113;28;20208;-73
2021/11/21 12:38:35;;;;;;;6.63;1.70;;;8.20;99.90;;;;;;5247448;28;20640;-71
2021/11/21 12:41:09;;;;;;;10.37;2.47;;;8.10;99.90;;;;;;5247203;28;20204;-74
2021/11/21 12:43:41;;;;;;;7.37;2.90;;;8.00;99.90;;;;;;5245884;28;20228;-70
2021/11/21 12:46:13;;;;;;;6.40;2.20;;;8.00;99.90;;;;;;5230112;28;20196;-72
2021/11/21 12:48:47;;;;;;;9.93;2.20;;;7.90;99.90;;;;;;5246272;28;20233;-73
2021/11/21 12:51:20;;;;;;;7.97;1.80;;;8.00;99.90;;;;;;5246152;28;20192;-71
2021/11/21 12:53:56;;;;;;;6.57;1.90;;;7.90;99.90;;;;;;5229914;28;20211;-73
2021/11/21 12:56:28;;;;;;;9.33;2.20;;;7.90;99.90;;;;;;5249677;28;20200;-72
2021/11/21 12:59:00;;;;;;;8.67;2.30;;;7.90;99.90;;;;;;5265666;28;20200;-71
2021/11/21 13:01:34;;;;;;;8.13;2.40;;;7.90;99.90;;;;;;5246990;28;20220;-69
2021/11/21 13:04:09;;;;;;;9.70;2.10;;;7.90;99.90;;;;;;5246712;28;20666;-70
2021/11/21 13:06:41;;;;;;;9.90;2.20;;;7.90;99.90;;;;;;5247048;28;20227;-72
2021/11/21 13:09:14;;;;;;;14.27;3.20;;;7.90;99.90;;;;;;5228936;28;20711;-73
2021/11/21 13:11:49;;;;;;;11.33;3.03;;;7.90;99.90;;;;;;5246223;28;20201;-73
2021/11/21 13:14:21;;;;;;;9.47;2.43;;;7.90;99.90;;;;;;5245689;28;20192;-72
2021/11/21 13:16:55;;;;;;;13.40;3.30;;;7.90;99.90;;;;;;5229168;28;20228;-74
2021/11/21 13:19:27;;;;;;;12.93;4.87;;;7.90;99.90;;;;;;5243655;28;20213;-69
2021/11/21 13:22:02;;;;;;;11.97;3.50;;;7.90;99.90;;;;;;5244311;28;20197;-69
2021/11/21 13:24:42;;;;;;;7.90;2.60;;;7.70;99.90;;;;;;5246186;28;20516;-73
2021/11/21 13:27:17;;;;;;;11.97;4.37;;;7.60;99.90;;;;;;5246764;28;20207;-73
2021/11/21 13:29:49;;;;;;;6.53;2.10;;;7.40;99.90;;;;;;5248889;28;20578;-71
2021/11/21 13:32:21;;;;;;;5.67;2.50;;;7.30;99.90;;;;;;5248907;28;20200;-70